EPLL

Łódź Władysław Reymont Airport

Łódź, Poland
METAR EPLL 140030Z 11002KT 9999 SCT016 BKN018 OVC021 M01/M04 Q1023
Observed Flight Rules
Dec-14 @ 00:30 UTC (15 minutes ago) Marginal Visual Flight Rules
Wind Visibility Clouds
110° at 2 knots 10,000+ meters
  • Scattered at 1,600' AGL
  • Broken at 1,800' AGL
  • Overcast at 2,100' AGL
Temperatures Readings
Current -1°C / 30°F
Dewpoint -4°C / 25°F
Humidity 80%
Altimeter 30.21" Hg
Pressure 1023 hPa
Elevation 184
METAR EPLL 140030Z 11002KT 9999 SCT016 BKN018 OVC021 M01/M04 Q1023
Observed Flight Rules
Dec-14 @ 00:30 UTC
(15 minutes ago)
MVFR
Wind Visibility
110° at 2 knots 10,000+ meters
Clouds
  • Scattered at 1,600' AGL
  • Broken at 1,800' AGL
  • Overcast at 2,100' AGL
Temperature Dewpoint
-1°C / 30°F -4°C / 25°F
Humidity Altimeter Pressure
80% 30.21" Hg 1023 hPa